Time;durP1;ratioP1;P1;durP2;ratioP2;P2;SDS_P1;SDS_P2;PMS_P1;PMS_P2;Temp;Humidity;BMP_temperature;BMP_pressure;BME280_temperature;BME280_humidity;BME280_pressure;Samples;Min_cycle;Max_cycle;Signal;HPM_P1;HPM_P2
2022/08/08 00:01:51;;;;;;;8.70;3.30;;;13.20;99.90;;;;;;4998698;28;20038;-86
2022/08/08 00:04:35;;;;;;;7.15;3.25;;;13.10;99.90;;;;;;5003978;28;20038;-86
2022/08/08 00:07:36;;;;;;;8.40;3.45;;;13.00;99.90;;;;;;5017971;28;20034;-86
2022/08/08 00:10:13;;;;;;;8.80;3.10;;;13.00;99.90;;;;;;5012097;28;20018;-86
2022/08/08 00:13:18;;;;;;;8.10;3.20;;;12.90;99.90;;;;;;5016470;28;20026;-86
2022/08/08 00:15:49;;;;;;;7.40;3.40;;;12.80;99.90;;;;;;5000707;28;20068;-86
2022/08/08 00:18:25;;;;;;;7.93;3.55;;;12.70;99.90;;;;;;5014069;28;20022;-86
2022/08/08 00:20:57;;;;;;;7.88;3.40;;;12.70;99.90;;;;;;5016528;28;20033;-86
2022/08/08 00:23:39;;;;;;;7.43;3.50;;;12.50;99.90;;;;;;5006531;28;20033;-86
2022/08/08 00:26:08;;;;;;;10.00;4.18;;;12.50;99.90;;;;;;5014321;28;20494;-86
2022/08/08 00:28:45;;;;;;;7.40;3.38;;;12.50;99.90;;;;;;5013101;28;20025;-86
2022/08/08 00:31:22;;;;;;;7.70;3.50;;;12.40;99.90;;;;;;5022138;28;20117;-86
2022/08/08 00:35:09;;;;;;;7.63;3.50;;;12.40;99.90;;;;;;5015422;28;20548;-86
2022/08/08 00:36:59;;;;;;;7.25;3.35;;;12.40;99.90;;;;;;5012365;28;20486;-86
2022/08/08 00:39:44;;;;;;;8.18;3.85;;;12.30;99.90;;;;;;5013190;28;20497;-86
2022/08/08 00:42:43;;;;;;;9.02;3.80;;;12.20;99.90;;;;;;5012037;28;20018;-86
2022/08/08 00:45:33;;;;;;;8.27;3.97;;;12.20;99.90;;;;;;5014300;28;20113;-86
2022/08/08 00:48:42;;;;;;;7.90;3.65;;;12.20;99.90;;;;;;5009437;28;20018;-86
2022/08/08 00:51:08;;;;;;;8.65;3.80;;;12.10;99.90;;;;;;4990832;28;20033;-86
2022/08/08 00:53:34;;;;;;;9.00;3.75;;;12.00;99.90;;;;;;5014352;28;20030;-86
2022/08/08 00:56:28;;;;;;;7.65;3.70;;;12.20;99.90;;;;;;5009690;28;20034;-86
2022/08/08 00:59:15;;;;;;;10.00;3.80;;;12.30;99.90;;;;;;5010488;28;20053;-86
2022/08/08 01:02:09;;;;;;;9.02;3.85;;;12.30;99.90;;;;;;5024153;28;20104;-86
2022/08/08 01:05:20;;;;;;;7.80;3.45;;;12.30;99.90;;;;;;5002475;28;20045;-86
2022/08/08 01:08:14;;;;;;;9.13;4.10;;;12.20;99.90;;;;;;5011277;28;20022;-86
2022/08/08 01:11:17;;;;;;;10.13;3.95;;;12.00;99.90;;;;;;5013118;28;20397;-86
2022/08/08 01:13:52;;;;;;;10.60;4.38;;;11.80;99.90;;;;;;5015814;28;20026;-86
2022/08/08 01:16:45;;;;;;;10.93;4.13;;;11.70;99.90;;;;;;5012987;28;20034;-86
2022/08/08 01:19:43;;;;;;;9.10;4.03;;;11.60;99.90;;;;;;5012217;28;20025;-86
2022/08/08 01:22:09;;;;;;;8.00;4.20;;;11.60;99.90;;;;;;4997096;28;20057;-86
2022/08/08 01:24:38;;;;;;;8.68;4.10;;;11.60;99.90;;;;;;5004322;28;20022;-86
2022/08/08 01:27:12;;;;;;;8.52;4.20;;;11.60;99.90;;;;;;5015834;28;20752;-86
2022/08/08 01:30:04;;;;;;;9.13;4.28;;;11.60;99.90;;;;;;5009449;28;20022;-86
2022/08/08 01:32:58;;;;;;;8.23;3.92;;;11.60;99.90;;;;;;5011853;28;20068;-86
2022/08/08 01:35:47;;;;;;;7.78;3.85;;;11.50;99.90;;;;;;5008528;28;20098;-86
2022/08/08 01:38:53;;;;;;;9.63;4.30;;;11.40;99.90;;;;;;5012221;28;20034;-86
2022/08/08 01:41:35;;;;;;;7.95;3.90;;;11.30;99.90;;;;;;5007649;28;20018;-86
2022/08/08 01:44:28;;;;;;;9.70;4.50;;;11.20;99.90;;;;;;5013556;28;20030;-86
2022/08/08 01:47:25;;;;;;;8.20;3.88;;;11.20;99.90;;;;;;5009379;28;20071;-86
2022/08/08 01:50:31;;;;;;;8.40;4.50;;;11.10;99.90;;;;;;5003929;28;20038;-86
2022/08/08 01:53:33;;;;;;;8.65;4.53;;;11.10;99.90;;;;;;5017086;28;20034;-86
2022/08/08 01:56:16;;;;;;;8.88;4.30;;;11.10;99.90;;;;;;5012836;28;20497;-86
2022/08/08 01:59:03;;;;;;;9.88;4.03;;;11.10;99.90;;;;;;5009475;28;20030;-86
2022/08/08 02:01:40;;;;;;;10.30;4.40;;;11.10;99.90;;;;;;5013876;28;20407;-86
2022/08/08 02:04:36;;;;;;;9.48;4.95;;;11.20;99.90;;;;;;5005217;28;20065;-86
2022/08/08 02:07:11;;;;;;;8.57;4.25;;;11.10;99.90;;;;;;5028995;28;20099;-86
2022/08/08 02:09:58;;;;;;;10.88;4.40;;;11.10;99.90;;;;;;5027789;28;20437;-86
2022/08/08 02:12:44;;;;;;;10.25;4.40;;;11.10;99.90;;;;;;5007538;28;20022;-86
2022/08/08 02:15:20;;;;;;;8.55;4.45;;;11.00;99.90;;;;;;5006877;28;20089;-86
2022/08/08 02:17:57;;;;;;;9.77;4.55;;;11.00;99.90;;;;;;5009407;28;20026;-86
2022/08/08 02:20:34;;;;;;;8.52;4.18;;;10.90;99.90;;;;;;5010948;28;20034;-86
2022/08/08 02:23:21;;;;;;;9.50;5.18;;;10.90;99.90;;;;;;5010699;28;20801;-86
2022/08/08 02:26:01;;;;;;;10.18;4.68;;;10.90;99.90;;;;;;5003867;28;20026;-86
2022/08/08 02:28:39;;;;;;;13.13;5.43;;;10.90;99.90;;;;;;5013400;28;20022;-86
2022/08/08 02:31:19;;;;;;;9.95;4.90;;;10.80;99.90;;;;;;5005891;28;20605;-86
2022/08/08 02:34:09;;;;;;;12.10;5.05;;;10.70;99.90;;;;;;5005272;28;20030;-86
2022/08/08 02:36:58;;;;;;;10.45;4.90;;;10.60;99.90;;;;;;5024161;28;20027;-86
2022/08/08 02:39:44;;;;;;;10.00;4.88;;;10.60;99.90;;;;;;5009087;28;20026;-86
2022/08/08 02:42:32;;;;;;;10.90;4.88;;;10.60;99.90;;;;;;5003305;28;20795;-86
2022/08/08 02:45:29;;;;;;;10.30;4.63;;;10.50;99.90;;;;;;5006889;28;20041;-86
2022/08/08 02:48:06;;;;;;;9.80;5.13;;;10.50;99.90;;;;;;5025377;28;20021;-86
2022/08/08 02:51:06;;;;;;;10.73;5.38;;;10.60;99.90;;;;;;5031401;28;20389;-86
2022/08/08 02:53:50;;;;;;;9.75;4.95;;;10.60;99.90;;;;;;5008599;28;20034;-86
2022/08/08 02:56:52;;;;;;;10.07;5.13;;;10.60;99.90;;;;;;5013404;28;20062;-86
2022/08/08 03:00:11;;;;;;;9.98;4.93;;;10.50;99.90;;;;;;5009268;28;20104;-86
2022/08/08 03:03:18;;;;;;;11.77;5.20;;;10.40;99.90;;;;;;5015682;28;20121;-86
2022/08/08 03:06:06;;;;;;;9.98;5.43;;;10.30;99.90;;;;;;4927775;29;20059;-86
2022/08/08 03:08:44;;;;;;;11.45;5.30;;;10.30;99.90;;;;;;5013107;28;20038;-86
2022/08/08 03:11:36;;;;;;;11.55;5.78;;;10.30;99.90;;;;;;5010818;28;20023;-86
2022/08/08 03:14:47;;;;;;;11.07;5.60;;;10.30;99.90;;;;;;5009297;28;20030;-86
2022/08/08 03:17:38;;;;;;;14.52;5.55;;;10.30;99.90;;;;;;4998851;28;20026;-86
2022/08/08 03:20:05;;;;;;;15.98;5.85;;;10.20;99.90;;;;;;4993812;28;20026;-86
2022/08/08 03:22:33;;;;;;;10.40;5.32;;;10.10;99.90;;;;;;5021164;28;20022;-86
2022/08/08 03:25:02;;;;;;;13.35;6.00;;;10.20;99.90;;;;;;5017444;28;20026;-86
2022/08/08 03:27:31;;;;;;;10.10;5.85;;;10.20;99.90;;;;;;5014433;28;20028;-85
2022/08/08 03:30:04;;;;;;;11.68;5.93;;;10.10;99.90;;;;;;5016536;28;20029;-86
2022/08/08 03:35:15;;;;;;;12.88;6.22;;;10.10;99.90;;;;;;5013583;28;20060;-86
2022/08/08 03:37:41;;;;;;;11.93;6.15;;;10.20;99.90;;;;;;5012484;28;20026;-86
2022/08/08 03:40:07;;;;;;;12.20;5.88;;;10.10;99.90;;;;;;5010277;28;20036;-86
2022/08/08 03:42:36;;;;;;;12.05;6.38;;;10.10;99.90;;;;;;5016194;28;20053;-86
2022/08/08 03:45:12;;;;;;;12.02;5.85;;;10.10;99.90;;;;;;5013717;28;20018;-85
2022/08/08 03:47:38;;;;;;;11.60;5.85;;;10.00;99.90;;;;;;5015856;28;20014;-86
2022/08/08 03:50:04;;;;;;;10.63;6.10;;;9.90;99.90;;;;;;5012092;28;20533;-85
2022/08/08 03:52:32;;;;;;;11.55;5.88;;;10.00;99.90;;;;;;5012652;28;20058;-86
2022/08/08 03:54:58;;;;;;;10.70;6.07;;;9.90;99.90;;;;;;5010646;28;20545;-86
2022/08/08 03:57:24;;;;;;;17.20;8.05;;;10.00;99.90;;;;;;5023489;28;20033;-85
2022/08/08 03:59:49;;;;;;;12.68;6.40;;;9.90;99.90;;;;;;5016546;28;20025;-86
2022/08/08 04:02:18;;;;;;;11.35;6.28;;;9.90;99.90;;;;;;5011963;28;20106;-86
2022/08/08 04:04:45;;;;;;;13.07;6.53;;;9.90;99.90;;;;;;5010662;28;20038;-86
2022/08/08 04:07:11;;;;;;;17.63;7.47;;;9.90;99.90;;;;;;5012331;28;20557;-86
2022/08/08 04:09:37;;;;;;;14.20;6.82;;;9.90;99.90;;;;;;5014559;28;20474;-86
2022/08/08 04:12:03;;;;;;;16.92;7.55;;;10.00;99.90;;;;;;5010172;28;20034;-86
2022/08/08 04:14:29;;;;;;;15.60;7.68;;;10.00;99.90;;;;;;5008853;28;20029;-86
2022/08/08 04:16:55;;;;;;;14.43;7.55;;;10.00;99.90;;;;;;5013812;28;20518;-86
2022/08/08 04:19:21;;;;;;;13.73;7.03;;;10.00;99.90;;;;;;5009408;28;20538;-86
2022/08/08 04:21:47;;;;;;;14.43;7.38;;;10.00;99.90;;;;;;5010873;28;20050;-86
2022/08/08 04:24:12;;;;;;;15.18;7.50;;;10.10;99.90;;;;;;5016982;28;20109;-86
2022/08/08 04:26:38;;;;;;;14.55;7.53;;;10.10;99.90;;;;;;5008934;28;20112;-86
2022/08/08 04:29:04;;;;;;;13.80;7.53;;;10.00;99.90;;;;;;5009405;28;20101;-86
2022/08/08 04:31:29;;;;;;;14.95;7.50;;;10.10;99.90;;;;;;5006600;28;20038;-86
2022/08/08 04:33:55;;;;;;;16.55;7.40;;;10.20;99.90;;;;;;5014621;28;20034;-86
2022/08/08 04:36:21;;;;;;;14.15;7.32;;;10.30;99.90;;;;;;5007755;28;20037;-85
2022/08/08 04:38:46;;;;;;;15.93;8.25;;;10.30;99.90;;;;;;5015257;28;20026;-85
2022/08/08 04:41:12;;;;;;;15.52;7.45;;;10.40;99.90;;;;;;5015749;28;20029;-85
2022/08/08 04:43:37;;;;;;;14.45;7.07;;;10.50;99.90;;;;;;5013694;28;20040;-85
2022/08/08 04:46:04;;;;;;;13.27;7.45;;;10.50;99.90;;;;;;5015137;28;20025;-85
2022/08/08 04:48:31;;;;;;;15.38;6.93;;;10.50;99.90;;;;;;5013243;28;20025;-85
2022/08/08 04:50:57;;;;;;;13.82;7.40;;;10.60;99.90;;;;;;5014583;28;20053;-85
2022/08/08 04:53:22;;;;;;;14.60;7.35;;;10.60;99.90;;;;;;5010924;28;20031;-85
2022/08/08 04:55:48;;;;;;;13.23;7.20;;;10.80;99.90;;;;;;5026147;28;20026;-85
2022/08/08 04:58:15;;;;;;;14.13;7.45;;;10.80;99.90;;;;;;5025995;28;20561;-85
2022/08/08 05:00:41;;;;;;;14.07;7.63;;;10.90;99.90;;;;;;5014367;28;20022;-85
2022/08/08 05:03:07;;;;;;;13.48;7.10;;;11.00;99.90;;;;;;5005564;28;20049;-85
2022/08/08 05:05:33;;;;;;;12.35;6.93;;;11.10;99.90;;;;;;5030166;28;20545;-85
2022/08/08 05:07:59;;;;;;;12.63;6.60;;;11.20;99.90;;;;;;5027895;28;20083;-86
2022/08/08 05:10:28;;;;;;;13.50;6.80;;;11.30;99.90;;;;;;5010437;28;20018;-86
2022/08/08 05:12:57;;;;;;;14.55;7.32;;;11.40;99.90;;;;;;5010900;28;20015;-85
2022/08/08 05:15:23;;;;;;;19.10;8.10;;;11.40;99.90;;;;;;5012426;28;20034;-85
2022/08/08 05:17:48;;;;;;;13.20;7.07;;;11.70;99.90;;;;;;5008822;28;20121;-85
2022/08/08 05:20:14;;;;;;;15.38;7.50;;;12.00;99.90;;;;;;5008880;28;20619;-85
2022/08/08 05:22:40;;;;;;;13.85;6.45;;;12.30;99.90;;;;;;5004486;28;20030;-86
2022/08/08 05:25:06;;;;;;;14.40;6.88;;;12.50;99.90;;;;;;5014940;28;20040;-86
2022/08/08 05:27:32;;;;;;;12.05;6.55;;;12.60;99.90;;;;;;5009538;28;20018;-86
2022/08/08 05:29:57;;;;;;;15.80;7.32;;;12.70;99.90;;;;;;5012715;28;20026;-86
2022/08/08 05:32:23;;;;;;;12.30;6.95;;;12.80;99.90;;;;;;5010352;28;20034;-85
2022/08/08 05:34:51;;;;;;;12.77;6.90;;;12.90;99.90;;;;;;5012100;28;20038;-86
2022/08/08 05:37:21;;;;;;;12.38;6.97;;;13.00;99.90;;;;;;5013937;28;20033;-86
2022/08/08 05:39:50;;;;;;;13.43;7.00;;;13.00;99.90;;;;;;5002478;28;20059;-86
2022/08/08 05:42:16;;;;;;;14.57;7.90;;;13.10;99.90;;;;;;5011763;28;20037;-86
2022/08/08 05:44:47;;;;;;;13.52;6.82;;;13.20;99.90;;;;;;5009439;28;20036;-85
2022/08/08 05:47:14;;;;;;;12.68;7.35;;;13.30;99.90;;;;;;5012409;28;20029;-85
2022/08/08 05:49:42;;;;;;;14.10;7.43;;;13.40;99.90;;;;;;5020518;28;20018;-87
2022/08/08 05:52:09;;;;;;;14.50;7.38;;;13.60;99.90;;;;;;5007162;28;20018;-85
2022/08/08 05:54:35;;;;;;;17.70;8.10;;;13.70;99.90;;;;;;5011609;28;20031;-85
2022/08/08 05:57:01;;;;;;;16.38;7.47;;;13.80;99.90;;;;;;5014273;28;20029;-85
2022/08/08 05:59:28;;;;;;;13.82;7.82;;;13.90;99.90;;;;;;5022123;28;20022;-85
2022/08/08 06:01:57;;;;;;;13.63;7.22;;;14.10;99.90;;;;;;5009118;28;20049;-84
2022/08/08 06:04:27;;;;;;;14.95;7.57;;;14.20;99.90;;;;;;5006088;28;20042;-83
2022/08/08 06:06:55;;;;;;;12.93;7.15;;;14.30;99.90;;;;;;5025788;28;20097;-83
2022/08/08 06:09:27;;;;;;;16.38;7.82;;;14.50;99.90;;;;;;5008030;28;20232;-82
2022/08/08 06:11:58;;;;;;;12.77;6.95;;;14.60;99.90;;;;;;5011307;28;20104;-82
2022/08/08 06:14:26;;;;;;;16.42;7.65;;;14.70;99.90;;;;;;5026540;28;20117;-84
2022/08/08 06:16:55;;;;;;;13.68;7.38;;;14.70;99.90;;;;;;5003609;28;20038;-82
2022/08/08 06:19:21;;;;;;;14.23;7.15;;;14.80;99.90;;;;;;5009418;28;20502;-83
2022/08/08 06:21:48;;;;;;;14.80;7.15;;;14.90;99.90;;;;;;5015182;28;20104;-83
2022/08/08 06:24:14;;;;;;;13.77;7.95;;;15.00;99.90;;;;;;5006471;28;20018;-83
2022/08/08 06:26:56;;;;;;;14.80;7.25;;;15.10;99.90;;;;;;5015993;28;20042;-82
2022/08/08 06:29:33;;;;;;;13.65;7.70;;;15.30;99.90;;;;;;5017927;28;20122;-83
2022/08/08 06:32:01;;;;;;;14.82;7.90;;;15.40;99.90;;;;;;5005782;28;20113;-83
2022/08/08 06:34:35;;;;;;;14.25;7.68;;;15.50;99.90;;;;;;5028757;28;20033;-83
2022/08/08 06:37:02;;;;;;;17.83;8.40;;;15.60;99.90;;;;;;5006799;28;20053;-83
2022/08/08 06:39:30;;;;;;;15.68;7.72;;;15.80;99.90;;;;;;5011808;28;20535;-83
2022/08/08 06:42:03;;;;;;;13.70;7.45;;;15.90;99.90;;;;;;5005948;28;20018;-83
2022/08/08 06:44:30;;;;;;;15.27;7.70;;;16.00;99.90;;;;;;5015028;28;20041;-82
2022/08/08 06:46:57;;;;;;;13.77;7.45;;;16.10;99.90;;;;;;4999921;28;20502;-83
2022/08/08 06:49:23;;;;;;;13.85;7.07;;;16.20;99.90;;;;;;5008320;28;20438;-83
2022/08/08 06:51:49;;;;;;;15.52;7.38;;;16.30;99.90;;;;;;5008319;28;20434;-83
2022/08/08 06:54:15;;;;;;;13.70;7.50;;;16.40;99.90;;;;;;5003023;28;20025;-83
2022/08/08 06:56:42;;;;;;;15.88;7.95;;;16.50;99.90;;;;;;5005683;28;20018;-82
2022/08/08 06:59:08;;;;;;;16.88;7.63;;;16.60;99.90;;;;;;5008822;28;20470;-82
2022/08/08 07:01:47;;;;;;;13.98;7.85;;;16.60;99.90;;;;;;5014313;28;20022;-82
2022/08/08 07:04:22;;;;;;;15.35;7.38;;;16.70;99.90;;;;;;5005905;28;20101;-82
2022/08/08 07:06:53;;;;;;;13.90;7.25;;;16.90;99.90;;;;;;5013527;28;20026;-83
2022/08/08 07:09:20;;;;;;;13.52;7.25;;;17.10;99.90;;;;;;5008586;28;20035;-82
2022/08/08 07:11:50;;;;;;;15.32;7.35;;;17.10;99.90;;;;;;5008029;28;20026;-82
2022/08/08 07:14:21;;;;;;;13.98;7.10;;;17.20;99.90;;;;;;5012553;28;20028;-83
2022/08/08 07:17:00;;;;;;;13.77;7.30;;;17.30;99.90;;;;;;4998417;28;20621;-83
2022/08/08 07:19:47;;;;;;;13.98;6.80;;;17.40;99.90;;;;;;5008790;28;20022;-83
2022/08/08 07:22:20;;;;;;;14.43;7.63;;;17.60;99.90;;;;;;5016417;28;20094;-83
2022/08/08 07:25:02;;;;;;;14.18;7.35;;;17.70;99.90;;;;;;5022164;28;20114;-82
2022/08/08 07:27:39;;;;;;;11.45;6.38;;;17.80;99.90;;;;;;4996799;28;20022;-83
2022/08/08 07:30:05;;;;;;;;;;;17.90;99.90;;;;;;5007574;28;20362;-83
2022/08/08 07:32:31;;;;;;;;;;;18.10;99.90;;;;;;5012660;28;19905;-83
2022/08/08 07:34:58;;;;;;;;;;;18.30;99.90;;;;;;5012573;28;19925;-83
2022/08/08 07:37:24;;;;;;;;;;;18.40;99.90;;;;;;5012006;28;19909;-83
2022/08/08 07:39:51;;;;;;;;;;;18.50;99.90;;;;;;5011780;28;19906;-83
2022/08/08 07:42:16;;;;;;;;;;;18.60;99.90;;;;;;5009977;28;20008;-83
2022/08/08 07:44:43;;;;;;;;;;;18.70;99.90;;;;;;5012753;28;19945;-83
2022/08/08 07:47:09;;;;;;;;;;;18.80;99.90;;;;;;5011158;28;19909;-83
2022/08/08 07:49:38;;;;;;;;;;;19.00;99.90;;;;;;5004140;28;19956;-83
2022/08/08 07:52:05;;;;;;;;;;;19.00;99.90;;;;;;5005724;28;19906;-83
2022/08/08 07:54:33;;;;;;;;;;;18.90;99.90;;;;;;5002285;28;19905;-84
2022/08/08 07:57:05;;;;;;;;;;;19.00;99.90;;;;;;5009200;28;19913;-82
2022/08/08 07:59:33;;;;;;;;;;;19.20;99.90;;;;;;5007133;28;19909;-82
2022/08/08 08:01:59;;;;;;;;;;;19.10;99.90;;;;;;4996782;28;19987;-83
2022/08/08 08:04:31;;;;;;;;;;;19.20;99.90;;;;;;5008735;28;19917;-83
2022/08/08 08:06:58;;;;;;;;;;;19.10;99.90;;;;;;5000920;28;19910;-83
2022/08/08 08:09:25;;;;;;;;;;;19.30;99.90;;;;;;5006488;28;19909;-83
2022/08/08 08:11:50;;;;;;;;;;;19.60;99.90;;;;;;5023700;28;19906;-83
2022/08/08 08:14:17;;;;;;;;;;;19.70;99.90;;;;;;5004641;28;19909;-83
2022/08/08 08:16:46;;;;;;;;;;;19.80;99.90;;;;;;5009078;28;19906;-83
2022/08/08 08:19:12;;;;;;;;;;;19.90;99.90;;;;;;5013156;28;19909;-82
2022/08/08 08:21:39;;;;;;;;;;;20.20;99.90;;;;;;5015286;28;19917;-83
2022/08/08 08:24:05;;;;;;;;;;;20.60;99.90;;;;;;5010653;28;20702;-83
2022/08/08 08:26:30;;;;;;;;;;;20.90;99.90;;;;;;5014630;28;20024;-83
2022/08/08 08:28:56;;;;;;;;;;;21.40;99.90;;;;;;5010645;28;19974;-83
2022/08/08 08:31:22;;;;;;;;;;;21.90;99.70;;;;;;5006220;28;19906;-83
2022/08/08 08:33:47;;;;;;;10.05;5.10;;;22.30;97.70;;;;;;5014574;28;19993;-83
2022/08/08 08:36:19;;;;;;;11.43;4.88;;;22.80;96.20;;;;;;4999902;28;20155;-84
2022/08/08 08:38:46;;;;;;;10.65;5.43;;;23.60;95.80;;;;;;5011885;28;20032;-83
2022/08/08 08:41:12;;;;;;;11.52;6.40;;;23.40;95.20;;;;;;5002811;28;20068;-83
2022/08/08 08:43:41;;;;;;;13.35;7.50;;;24.10;93.50;;;;;;5006267;28;20034;-83
2022/08/08 08:46:08;;;;;;;14.13;7.63;;;24.00;93.40;;;;;;5011317;28;20029;-82
2022/08/08 08:48:35;;;;;;;12.45;7.40;;;24.70;93.10;;;;;;5009925;28;20538;-83
2022/08/08 08:51:02;;;;;;;13.52;7.45;;;24.70;91.90;;;;;;5008211;28;20040;-83
2022/08/08 08:53:33;;;;;;;13.68;7.05;;;25.00;91.70;;;;;;5011814;28;20026;-83
2022/08/08 08:56:00;;;;;;;14.48;7.60;;;24.90;91.00;;;;;;5013173;28;20185;-83
2022/08/08 08:58:43;;;;;;;15.50;6.35;;;24.30;91.50;;;;;;5026007;28;20477;-83
2022/08/08 09:01:11;;;;;;;11.68;6.30;;;24.60;91.50;;;;;;5013342;28;20056;-83
2022/08/08 09:03:39;;;;;;;17.92;6.57;;;24.70;91.40;;;;;;5021509;28;20049;-83
2022/08/08 09:06:08;;;;;;;12.68;5.88;;;24.70;91.00;;;;;;5010856;28;20030;-82
2022/08/08 09:08:37;;;;;;;14.27;6.55;;;25.00;90.60;;;;;;5012364;28;20054;-83
2022/08/08 09:11:07;;;;;;;16.48;6.35;;;25.80;90.10;;;;;;5004810;28;20031;-83
2022/08/08 09:13:36;;;;;;;11.68;6.10;;;25.80;89.00;;;;;;5007040;28;20081;-83
2022/08/08 09:16:07;;;;;;;8.82;4.90;;;25.80;88.50;;;;;;5004383;28;20026;-83
2022/08/08 09:18:33;;;;;;;12.73;5.07;;;26.10;89.10;;;;;;5005283;28;20390;-83
2022/08/08 09:21:01;;;;;;;11.77;5.90;;;26.50;87.50;;;;;;5009913;28;20018;-83
2022/08/08 09:23:28;;;;;;;10.40;5.20;;;26.50;85.80;;;;;;5008025;28;20053;-83
2022/08/08 09:26:22;;;;;;;11.50;4.93;;;26.60;84.50;;;;;;5015521;28;20081;-83
2022/08/08 09:28:49;;;;;;;9.68;4.32;;;26.70;84.40;;;;;;5018905;28;20061;-83
2022/08/08 09:31:46;;;;;;;10.70;4.85;;;26.20;86.10;;;;;;5007689;28;20474;-83
2022/08/08 09:34:16;;;;;;;9.95;4.50;;;27.30;84.20;;;;;;5026902;28;20852;-84
2022/08/08 09:36:44;;;;;;;11.40;6.13;;;27.20;83.20;;;;;;5022650;28;20487;-83
2022/08/08 09:39:11;;;;;;;13.23;4.10;;;27.70;81.50;;;;;;5009713;28;20017;-84
2022/08/08 09:41:41;;;;;;;8.75;3.72;;;27.10;81.00;;;;;;5007242;28;20032;-84
2022/08/08 09:44:18;;;;;;;10.38;4.65;;;26.80;80.00;;;;;;5011250;28;20125;-84
2022/08/08 09:46:47;;;;;;;11.48;6.18;;;26.10;82.80;;;;;;5024089;28;20414;-83
2022/08/08 09:49:17;;;;;;;13.27;5.85;;;26.00;83.90;;;;;;5012635;28;20026;-83
2022/08/08 09:51:46;;;;;;;12.43;4.95;;;26.70;82.80;;;;;;5010031;28;20048;-84
2022/08/08 09:54:16;;;;;;;9.25;4.30;;;27.30;80.70;;;;;;5013921;28;20083;-84
2022/08/08 09:56:47;;;;;;;7.95;3.42;;;28.50;78.10;;;;;;5014173;28;20568;-84
2022/08/08 09:59:23;;;;;;;8.00;3.33;;;27.90;78.20;;;;;;5010460;28;20098;-84
2022/08/08 10:01:51;;;;;;;17.42;4.13;;;27.60;76.90;;;;;;5012019;28;20097;-84
2022/08/08 10:04:21;;;;;;;10.68;3.63;;;27.40;79.20;;;;;;5008520;28;20065;-84
2022/08/08 10:06:48;;;;;;;7.40;3.30;;;28.10;77.80;;;;;;5009472;28;20021;-84
2022/08/08 10:09:13;;;;;;;12.93;3.90;;;27.60;77.90;;;;;;5014292;28;20568;-84
2022/08/08 10:11:46;;;;;;;8.48;3.60;;;27.90;77.50;;;;;;5012958;28;20030;-84
2022/08/08 10:14:12;;;;;;;8.00;3.15;;;28.00;79.20;;;;;;5006447;28;20555;-84
2022/08/08 10:16:40;;;;;;;9.43;3.38;;;28.70;76.70;;;;;;5012099;28;20125;-83
2022/08/08 10:19:08;;;;;;;8.75;3.33;;;28.70;73.70;;;;;;5004999;28;20072;-85
2022/08/08 10:21:35;;;;;;;6.95;3.25;;;28.50;74.20;;;;;;5015830;28;20027;-83
2022/08/08 10:24:06;;;;;;;10.98;3.35;;;28.30;73.70;;;;;;5005040;28;20094;-84
2022/08/08 10:26:43;;;;;;;11.88;3.40;;;29.10;73.50;;;;;;5008755;28;20426;-84
2022/08/08 10:29:11;;;;;;;10.23;3.30;;;29.80;73.10;;;;;;5009433;28;20087;-83
2022/08/08 10:34:24;;;;;;;8.95;3.25;;;28.90;73.60;;;;;;5006523;28;20188;-84
2022/08/08 10:36:51;;;;;;;13.98;3.17;;;29.00;73.40;;;;;;5010809;28;20022;-84
2022/08/08 10:39:22;;;;;;;9.68;3.83;;;29.50;72.80;;;;;;5013193;28;20057;-84
2022/08/08 10:41:59;;;;;;;11.15;3.30;;;29.70;73.00;;;;;;5009136;28;20026;-84
2022/08/08 10:44:37;;;;;;;10.07;3.35;;;28.90;72.40;;;;;;5010225;28;20056;-85
2022/08/08 10:47:15;;;;;;;8.88;3.58;;;29.70;70.90;;;;;;5004797;28;20018;-84
2022/08/08 10:49:50;;;;;;;9.02;3.20;;;30.20;71.40;;;;;;5002040;28;20030;-85
2022/08/08 10:52:34;;;;;;;8.73;3.40;;;30.50;70.50;;;;;;5006359;28;20491;-85
2022/08/08 10:55:08;;;;;;;7.93;2.60;;;30.00;68.30;;;;;;5005225;28;20065;-85
2022/08/08 10:57:42;;;;;;;7.60;2.70;;;30.50;67.60;;;;;;5007040;28;20027;-85
2022/08/08 11:00:11;;;;;;;8.57;2.88;;;30.90;67.40;;;;;;5003767;28;20022;-84
2022/08/08 11:02:37;;;;;;;6.75;3.03;;;30.50;69.30;;;;;;5006765;28;20053;-84
2022/08/08 11:05:09;;;;;;;6.75;3.15;;;31.20;66.30;;;;;;5006279;28;20046;-84
2022/08/08 11:07:39;;;;;;;8.57;3.33;;;30.50;65.50;;;;;;5010111;28;20049;-84
2022/08/08 11:10:09;;;;;;;6.90;2.90;;;30.90;65.40;;;;;;5013066;28;20168;-84
2022/08/08 11:12:47;;;;;;;7.93;2.95;;;30.40;66.40;;;;;;5010387;28;20022;-85
2022/08/08 11:15:21;;;;;;;6.20;2.30;;;30.70;65.60;;;;;;5009066;28;20513;-84
2022/08/08 11:17:48;;;;;;;5.82;2.63;;;30.70;64.50;;;;;;5012654;28;20018;-84
2022/08/08 11:20:18;;;;;;;6.65;3.00;;;30.80;65.70;;;;;;5012481;28;20486;-84
2022/08/08 11:22:50;;;;;;;7.35;2.78;;;30.90;65.20;;;;;;5004284;28;20026;-84
2022/08/08 11:25:17;;;;;;;7.93;2.90;;;31.10;65.50;;;;;;5006806;28;20041;-84
2022/08/08 11:27:46;;;;;;;8.90;3.58;;;31.10;66.70;;;;;;5007912;28;20033;-84
2022/08/08 11:30:13;;;;;;;7.47;2.97;;;31.20;64.70;;;;;;5013313;28;20545;-84
2022/08/08 11:32:41;;;;;;;9.13;2.97;;;31.60;63.90;;;;;;5010197;28;20026;-84
2022/08/08 11:35:08;;;;;;;8.15;3.20;;;33.00;62.00;;;;;;5007450;28;20089;-84
2022/08/08 11:37:35;;;;;;;8.48;2.60;;;32.60;62.50;;;;;;5023706;28;20045;-85
2022/08/08 11:40:04;;;;;;;7.03;2.60;;;33.10;62.40;;;;;;5002889;28;20049;-84
2022/08/08 11:42:31;;;;;;;8.57;2.50;;;33.00;62.80;;;;;;5005422;28;20030;-84
2022/08/08 11:44:57;;;;;;;7.03;2.97;;;34.10;61.80;;;;;;5004650;28;20498;-84
2022/08/08 11:47:24;;;;;;;8.27;2.90;;;33.80;61.00;;;;;;5015818;28;20033;-85
2022/08/08 11:50:00;;;;;;;7.57;2.90;;;34.00;58.60;;;;;;5008300;28;20238;-84
2022/08/08 11:52:26;;;;;;;10.23;3.00;;;34.20;59.60;;;;;;5013319;28;20097;-85
2022/08/08 11:54:55;;;;;;;6.30;2.60;;;33.90;58.30;;;;;;5016566;28;20030;-85
2022/08/08 11:57:32;;;;;;;8.07;3.10;;;33.20;60.70;;;;;;5010772;28;20592;-84
2022/08/08 12:00:00;;;;;;;9.07;3.10;;;32.10;61.50;;;;;;5003434;28;20060;-84
2022/08/08 12:02:29;;;;;;;9.50;3.40;;;31.20;61.20;;;;;;5008718;28;20045;-85
2022/08/08 12:05:08;;;;;;;10.20;3.50;;;30.90;62.80;;;;;;5010242;28;20045;-84
2022/08/08 12:07:52;;;;;;;7.38;3.10;;;31.30;61.40;;;;;;5011881;28;20034;-84
2022/08/08 12:10:20;;;;;;;6.97;2.85;;;32.50;59.70;;;;;;5009533;28;20049;-84
2022/08/08 12:12:47;;;;;;;7.60;2.83;;;32.50;62.00;;;;;;5014570;28;20409;-85
2022/08/08 12:15:37;;;;;;;7.78;2.78;;;32.50;60.80;;;;;;5016857;28;20026;-85
2022/08/08 12:18:15;;;;;;;8.57;2.80;;;33.50;60.90;;;;;;5009211;28;20053;-85
2022/08/08 12:20:41;;;;;;;8.52;3.08;;;33.80;60.40;;;;;;5018419;28;20049;-84
2022/08/08 12:23:07;;;;;;;7.65;2.75;;;33.00;59.80;;;;;;5021313;28;20042;-85
2022/08/08 12:25:33;;;;;;;8.15;3.00;;;32.70;59.50;;;;;;5018008;28;20041;-85
2022/08/08 12:28:14;;;;;;;7.63;2.78;;;33.20;59.50;;;;;;5001720;28;20088;-84
2022/08/08 12:30:42;;;;;;;11.30;2.97;;;33.30;60.40;;;;;;5012352;28;20413;-85
2022/08/08 12:33:24;;;;;;;7.85;2.95;;;33.60;59.50;;;;;;5013547;28;20045;-85
2022/08/08 12:35:50;;;;;;;7.15;2.80;;;32.90;58.90;;;;;;5011794;28;20139;-84
2022/08/08 12:38:16;;;;;;;6.22;2.90;;;33.00;59.40;;;;;;5012797;28;20451;-84
2022/08/08 12:40:44;;;;;;;8.05;2.63;;;32.20;59.50;;;;;;5009681;28;20097;-84
2022/08/08 12:43:11;;;;;;;6.57;2.85;;;32.60;59.50;;;;;;5012053;28;20017;-85
2022/08/08 12:45:43;;;;;;;6.82;2.95;;;32.40;59.40;;;;;;5013430;28;20018;-85
2022/08/08 12:48:20;;;;;;;7.15;3.45;;;33.00;59.90;;;;;;5013114;28;20077;-85
2022/08/08 12:50:48;;;;;;;7.93;2.70;;;32.60;59.40;;;;;;5011273;28;20032;-84
2022/08/08 12:53:23;;;;;;;7.82;3.10;;;32.70;59.50;;;;;;5010901;28;20076;-85
2022/08/08 12:56:00;;;;;;;7.55;3.08;;;33.30;58.40;;;;;;5009168;28;20042;-84
2022/08/08 12:58:41;;;;;;;8.50;3.00;;;33.70;58.30;;;;;;5010663;28;20113;-84
2022/08/08 13:01:11;;;;;;;8.27;3.28;;;32.70;58.60;;;;;;5029001;28;20026;-85
2022/08/08 13:03:44;;;;;;;7.07;3.05;;;32.70;59.80;;;;;;5014238;28;20529;-84
2022/08/08 13:06:17;;;;;;;7.90;3.08;;;33.30;57.80;;;;;;5011355;28;20030;-84
2022/08/08 13:08:48;;;;;;;7.47;2.83;;;31.50;59.80;;;;;;5015723;28;20097;-86
2022/08/08 13:11:33;;;;;;;8.70;3.05;;;31.80;61.30;;;;;;5015781;28;20033;-84
2022/08/08 13:14:15;;;;;;;9.20;2.85;;;33.20;59.50;;;;;;5013026;28;20408;-85
2022/08/08 13:16:41;;;;;;;9.50;2.92;;;34.50;58.90;;;;;;5008139;28;20021;-85
2022/08/08 13:19:09;;;;;;;7.28;2.80;;;34.80;57.80;;;;;;5005507;28;20049;-85
2022/08/08 13:21:45;;;;;;;8.55;2.90;;;34.10;57.70;;;;;;5022951;28;20795;-85
2022/08/08 13:24:12;;;;;;;6.95;2.85;;;33.70;57.90;;;;;;5010386;28;20114;-84
2022/08/08 13:26:38;;;;;;;6.50;2.95;;;33.80;58.30;;;;;;5012041;28;20017;-85